»·PEaware :: N4306H KTOA-KVNY

N4306H :: KTOA-KVNY

FLIGHT INFORMATION

Flight Status: Arrived
Operator: Privately registered:
United States
More flights under this callsign
Pilot: Lauro R. (32390)
Aircraft: MOONEY M-20 201 202 205 220 ATS MSE
(M20P)
More flights by this aircraft type
Origin: KTOA Zamperini
United States
Destination: KVNY Van Nuys
United States
More flights between these airports :: More routes between these airports
Route: LAX170 LIMBO V64 SMO125 SMO SMO317 CANOG
File this flight plan on PilotEdge
Remarks:
Altitude:
(Current/Filed)
4,000ft
Speed:
(Current/Filed)
150kts
Departed: 04-Feb-21 04:25 PM
Arrived: 04-Feb-21 05:22 PM
Distance/Time
Traveled:
25nm/0:57
Distance/Time
To Go:
Arrived

Flight Plot

Page will automatically refresh every two minutes.

Flight plan parsing failed; only flown route is shown


Map Options




Map Legend


Flown Route
Filed Route
Departure Airport
Arrival Airport
Navaid (VOR, NDB)
Fix

Horizontal Profiles

Position Reports

Time Latitude Longitude Heading Altitude Ground
Speed
04-Feb-21 15:57 33.803347 -118.344052 39 101ft 0kts
04-Feb-21 15:58 33.803347 -118.344052 39 101ft 0kts
04-Feb-21 15:59 33.803347 -118.344052 39 101ft 0kts
04-Feb-21 16:00 33.803347 -118.344052 39 101ft 0kts
04-Feb-21 16:01 33.803347 -118.344052 39 101ft 0kts
04-Feb-21 16:02 33.803347 -118.344052 39 101ft 0kts
04-Feb-21 16:03 33.803347 -118.344052 39 101ft 0kts
04-Feb-21 16:04 33.803347 -118.344052 39 101ft 0kts
04-Feb-21 16:05 33.803347 -118.344052 39 101ft 0kts
04-Feb-21 16:06 33.803347 -118.344052 39 101ft 0kts
04-Feb-21 16:07 33.803347 -118.344052 39 101ft 0kts
04-Feb-21 16:08 33.803347 -118.344052 39 101ft 0kts
04-Feb-21 16:09 33.803347 -118.344052 39 101ft 0kts
04-Feb-21 16:10 33.803347 -118.344052 39 101ft 0kts
04-Feb-21 16:11 33.803347 -118.344052 39 101ft 0kts
04-Feb-21 16:12 33.803347 -118.344052 39 101ft 0kts
04-Feb-21 16:14 33.803347 -118.344052 39 101ft 0kts
04-Feb-21 16:15 33.803347 -118.344052 39 101ft 0kts
04-Feb-21 16:16 33.803288 -118.343662 132 101ft 5kts
04-Feb-21 16:17 33.802886 -118.343066 127 102ft 8kts
04-Feb-21 16:18 33.802221 -118.340825 128 101ft 9kts
04-Feb-21 16:19 33.800163 -118.337731 130 102ft 7kts
04-Feb-21 16:20 33.798361 -118.335012 126 104ft 3kts
04-Feb-21 16:21 33.798592 -118.333770 37 101ft 8kts
04-Feb-21 16:22 33.799101 -118.333291 33 99ft 0kts
04-Feb-21 16:23 33.799101 -118.333291 34 99ft 0kts
04-Feb-21 16:24 33.799460 -118.332979 19 98ft 8kts
04-Feb-21 16:25 33.812143 -118.350570 311 482ft 104kts
04-Feb-21 16:26 33.817319 -118.357145 309 849ft 94kts
04-Feb-21 16:27 33.838514 -118.384691 310 1442ft 128kts
04-Feb-21 16:28 33.863367 -118.417212 310 2141ft 130kts
04-Feb-21 16:29 33.894820 -118.434148 354 2927ft 132kts
04-Feb-21 16:30 33.928120 -118.432327 359 3648ft 130kts
04-Feb-21 16:31 33.959827 -118.440492 341 4019ft 146kts
04-Feb-21 16:32 33.962173 -118.441247 340 4019ft 148kts
04-Feb-21 16:32 33.803347 -118.344052 39 101ft 0kts
04-Feb-21 16:33 33.803347 -118.344052 39 101ft 0kts
04-Feb-21 16:34 33.803347 -118.344052 39 101ft 0kts
04-Feb-21 16:36 33.803347 -118.344052 39 101ft 0kts
04-Feb-21 16:36 33.803347 -118.344052 39 101ft 0kts
04-Feb-21 16:37 33.803347 -118.344052 39 101ft 0kts
04-Feb-21 16:38 33.803347 -118.344052 39 101ft 0kts
04-Feb-21 16:39 33.803347 -118.344052 39 101ft 0kts
04-Feb-21 16:40 33.803152 -118.343470 128 102ft 13kts
04-Feb-21 16:41 33.802672 -118.341511 128 100ft 22kts
04-Feb-21 16:42 33.799301 -118.336426 128 103ft 19kts
04-Feb-21 16:43 33.799066 -118.333323 37 100ft 0kts
04-Feb-21 16:44 33.799066 -118.333323 37 100ft 0kts
04-Feb-21 16:45 33.806341 -118.342188 309 228ft 89kts
04-Feb-21 16:46 33.825940 -118.367806 310 1031ft 113kts
04-Feb-21 16:47 33.848353 -118.396946 310 1835ft 122kts
04-Feb-21 16:48 33.870543 -118.427815 284 2625ft 121kts
04-Feb-21 16:49 33.847618 -118.447258 178 3414ft 129kts
04-Feb-21 16:50 33.814265 -118.434344 181 4000ft 142kts
04-Feb-21 16:51 33.777410 -118.449777 266 4021ft 152kts
04-Feb-21 16:52 33.808588 -118.452698 31 4010ft 156kts
04-Feb-21 16:53 33.848979 -118.441004 1 4013ft 153kts
04-Feb-21 16:54 33.892265 -118.436224 1 4015ft 161kts
04-Feb-21 16:55 33.934192 -118.432318 348 4006ft 162kts
04-Feb-21 16:56 33.977427 -118.446100 341 4013ft 163kts
04-Feb-21 16:57 34.013557 -118.456387 342 4003ft 120kts
04-Feb-21 16:58 34.041690 -118.463330 342 4002ft 94kts
04-Feb-21 16:59 34.065804 -118.468754 342 4007ft 85kts
04-Feb-21 17:00 34.092409 -118.475096 342 4525ft 111kts
04-Feb-21 17:01 34.124033 -118.488709 332 4993ft 134kts
04-Feb-21 17:02 34.161369 -118.512047 331 5005ft 167kts
04-Feb-21 17:03 34.199985 -118.540454 331 4984ft 147kts
04-Feb-21 17:04 34.232926 -118.563267 331 4984ft 133kts
04-Feb-21 17:05 34.264784 -118.585774 331 4986ft 132kts
04-Feb-21 17:06 34.299952 -118.595596 351 4988ft 131kts
04-Feb-21 17:07 34.336091 -118.602043 351 4989ft 131kts
04-Feb-21 17:08 34.372200 -118.608344 351 4990ft 130kts
04-Feb-21 17:09 34.408185 -118.614479 351 4992ft 130kts
04-Feb-21 17:10 34.444113 -118.620380 351 5000ft 130kts
04-Feb-21 17:11 34.476389 -118.613785 72 5027ft 140kts
04-Feb-21 17:12 34.479414 -118.565799 82 5018ft 142kts
04-Feb-21 17:13 34.457686 -118.529229 145 5020ft 149kts
04-Feb-21 17:14 34.420221 -118.509981 157 5020ft 149kts
04-Feb-21 17:15 34.379114 -118.500500 181 4957ft 153kts
04-Feb-21 17:16 34.328596 -118.500923 178 3335ft 210kts
04-Feb-21 17:17 34.284573 -118.497551 176 2394ft 123kts
04-Feb-21 17:18 34.256502 -118.494814 173 1785ft 92kts
04-Feb-21 17:19 34.234715 -118.492743 172 1298ft 74kts
04-Feb-21 17:20 34.218023 -118.491167 174 872ft 63kts
04-Feb-21 17:21 34.208030 -118.491119 198 804ft 0kts
04-Feb-21 17:22 34.208030 -118.491119 198 804ft 0kts
04-Feb-21 17:23 34.208030 -118.491119 198 804ft 0kts
04-Feb-21 17:24 34.205965 -118.491239 191 804ft 34kts

Navigation Log

Ident Type
Flight plan parsing failed, navigation log unavailable